Time,TemperatureF,DewpointF,PressureIn,WindDirection,WindDirectionDegrees,WindSpeedMPH,WindSpeedGustMPH,Humidity,HourlyPrecipIn,Conditions,Clouds,dailyrainin,SoftwareType,DateUTC
2013-02-20 00:00:00,41.2,40.1,29.59,NW,317,2.0,0.0,96,0.00,,,0.00,WeatherTracker,2013-02-20 05:00:00,
2013-02-20 00:05:00,41.1,40.0,29.58,WNW,299,1.0,0.0,96,0.00,,,0.00,WeatherTracker,2013-02-20 05:05:00,
2013-02-20 00:10:00,41.1,40.0,29.58,WNW,299,1.0,0.0,96,0.00,,,0.00,WeatherTracker,2013-02-20 05:10:00,
2013-02-20 00:15:00,41.0,39.9,29.58,WNW,302,1.0,0.0,96,0.00,,,0.00,WeatherTracker,2013-02-20 05:15:00,
2013-02-20 00:20:00,41.0,39.9,29.58,WNW,288,2.0,0.0,96,0.00,,,0.00,WeatherTracker,2013-02-20 05:20:00,
2013-02-20 00:25:00,40.9,39.8,29.57,West,261,2.0,0.0,96,0.00,,,0.00,WeatherTracker,2013-02-20 05:25:00,
2013-02-20 00:35:00,40.8,39.7,29.56,West,260,1.0,0.0,96,0.00,,,0.00,WeatherTracker,2013-02-20 05:35:00,
2013-02-20 00:40:00,40.7,39.6,29.56,West,262,0.0,0.0,96,0.00,,,0.00,WeatherTracker,2013-02-20 05:40:00,
2013-02-20 00:50:00,40.3,39.0,29.55,West,261,1.0,0.0,95,0.00,,,0.00,WeatherTracker,2013-02-20 05:50:00,
2013-02-20 01:00:00,39.9,38.6,29.56,West,261,2.0,0.0,95,0.00,,,0.00,WeatherTracker,2013-02-20 06:00:00,
2013-02-20 01:05:00,39.7,38.4,29.56,West,265,2.0,0.0,95,0.00,,,0.00,WeatherTracker,2013-02-20 06:05:00,
2013-02-20 01:10:00,39.6,38.3,29.56,NW,323,2.0,0.0,95,0.00,,,0.00,WeatherTracker,2013-02-20 06:10:00,
2013-02-20 01:15:00,39.5,38.5,29.56,NW,308,1.0,0.0,96,0.00,,,0.00,WeatherTracker,2013-02-20 06:15:00,
2013-02-20 01:20:00,39.5,38.5,29.56,WNW,291,1.0,0.0,96,0.00,,,0.00,WeatherTracker,2013-02-20 06:20:00,
2013-02-20 01:30:00,39.2,37.9,29.57,WNW,292,2.0,0.0,95,0.00,,,0.00,WeatherTracker,2013-02-20 06:30:00,
2013-02-20 01:40:00,38.9,37.6,29.57,NW,309,1.0,0.0,95,0.00,,,0.00,WeatherTracker,2013-02-20 06:40:00,
2013-02-20 01:50:00,38.8,37.5,29.57,WNW,282,1.0,0.0,95,0.00,,,0.00,WeatherTracker,2013-02-20 06:50:00,
2013-02-20 03:11:00,38.1,36.5,29.57,NW,322,8.0,0.0,94,0.00,,,0.00,WeatherTracker,2013-02-20 08:11:00,
2013-02-20 03:20:00,37.3,34.4,29.57,North,11,5.0,0.0,89,0.00,,,0.00,WeatherTracker,2013-02-20 08:20:00,
2013-02-20 03:25:00,37.0,34.1,29.57,NNW,343,5.0,0.0,89,0.00,,,0.00,WeatherTracker,2013-02-20 08:25:00,
2013-02-20 03:35:00,36.5,33.3,29.56,NNW,335,5.0,0.0,88,0.00,,,0.00,WeatherTracker,2013-02-20 08:35:00,
2013-02-20 03:40:00,36.4,32.9,29.56,NNW,338,3.0,0.0,87,0.00,,,0.00,WeatherTracker,2013-02-20 08:40:00,
2013-02-20 03:50:00,36.0,32.2,29.57,NE,34,2.0,0.0,86,0.00,,,0.00,WeatherTracker,2013-02-20 08:50:00,
2013-02-20 03:55:00,35.8,31.7,29.57,NNW,327,6.0,0.0,85,0.00,,,0.00,WeatherTracker,2013-02-20 08:55:00,
2013-02-20 04:00:00,35.6,31.3,29.57,NNW,348,5.0,0.0,84,0.00,,,0.00,WeatherTracker,2013-02-20 09:00:00,
2013-02-20 04:10:00,35.4,30.8,29.58,WNW,297,3.0,0.0,83,0.00,,,0.00,WeatherTracker,2013-02-20 09:10:00,
2013-02-20 04:20:00,35.3,30.4,29.58,North,360,4.0,0.0,82,0.00,,,0.00,WeatherTracker,2013-02-20 09:20:00,
2013-02-20 04:25:00,35.1,30.2,29.58,NW,323,2.0,0.0,82,0.00,,,0.00,WeatherTracker,2013-02-20 09:25:00,
2013-02-20 04:30:00,35.0,29.8,29.58,WNW,283,4.0,0.0,81,0.00,,,0.00,WeatherTracker,2013-02-20 09:30:00,
2013-02-20 04:35:00,34.8,29.3,29.58,North,355,5.0,0.0,80,0.00,,,0.00,WeatherTracker,2013-02-20 09:35:00,
2013-02-20 04:40:00,34.6,29.1,29.59,North,355,8.0,0.0,80,0.00,,,0.00,WeatherTracker,2013-02-20 09:40:00,
2013-02-20 04:45:00,34.4,28.9,29.59,NNE,19,5.0,0.0,80,0.00,,,0.00,WeatherTracker,2013-02-20 09:45:00,
2013-02-20 04:55:00,34.2,28.7,29.59,NNW,342,1.0,0.0,80,0.00,,,0.00,WeatherTracker,2013-02-20 09:55:00,
2013-02-20 05:00:00,34.0,28.2,29.59,NE,51,4.0,0.0,79,0.00,,,0.00,WeatherTracker,2013-02-20 10:00:00,
2013-02-20 05:10:00,33.9,27.5,29.59,NNW,340,3.0,0.0,77,0.00,,,0.00,WeatherTracker,2013-02-20 10:10:00,
2013-02-20 05:15:00,33.8,26.7,29.60,NW,307,5.0,0.0,75,0.00,,,0.00,WeatherTracker,2013-02-20 10:15:00,
2013-02-20 05:25:00,33.7,26.0,29.60,North,355,4.0,0.0,73,0.00,,,0.00,WeatherTracker,2013-02-20 10:25:00,
2013-02-20 05:30:00,33.6,25.9,29.60,South,173,2.0,0.0,73,0.00,,,0.00,WeatherTracker,2013-02-20 10:30:00,
2013-02-20 05:35:00,33.5,26.1,29.61,NW,311,2.0,0.0,74,0.00,,,0.00,WeatherTracker,2013-02-20 10:35:00,
2013-02-20 05:40:00,33.4,26.0,29.61,West,269,5.0,0.0,74,0.00,,,0.00,WeatherTracker,2013-02-20 10:40:00,
2013-02-20 05:50:00,33.2,25.5,29.61,NNW,334,4.0,0.0,73,0.00,,,0.00,WeatherTracker,2013-02-20 10:50:00,
2013-02-20 05:55:00,33.2,25.5,29.61,WNW,285,4.0,0.0,73,0.00,,,0.00,WeatherTracker,2013-02-20 10:55:00,
2013-02-20 06:00:00,33.1,25.4,29.61,SE,134,2.0,0.0,73,0.00,,,0.00,WeatherTracker,2013-02-20 11:00:00,
2013-02-20 06:05:00,33.0,25.0,29.61,NNE,17,4.0,0.0,72,0.00,,,0.00,WeatherTracker,2013-02-20 11:05:00,
2013-02-20 06:10:00,33.0,25.0,29.61,NNW,333,1.0,0.0,72,0.00,,,0.00,WeatherTracker,2013-02-20 11:10:00,
2013-02-20 06:15:00,32.9,24.9,29.61,North,5,10.0,0.0,72,0.00,,,0.00,WeatherTracker,2013-02-20 11:15:00,
2013-02-20 06:20:00,32.8,24.8,29.62,NNW,333,5.0,0.0,72,0.00,,,0.00,WeatherTracker,2013-02-20 11:20:00,
2013-02-20 06:25:00,32.6,24.6,29.62,West,276,6.0,0.0,72,0.00,,,0.00,WeatherTracker,2013-02-20 11:25:00,
2013-02-20 06:30:00,32.5,24.2,29.62,NNE,20,5.0,0.0,71,0.00,,,0.00,WeatherTracker,2013-02-20 11:30:00,
2013-02-20 06:35:00,32.3,24.0,29.62,NNE,15,4.0,0.0,71,0.00,,,0.00,WeatherTracker,2013-02-20 11:35:00,
2013-02-20 06:45:00,31.9,22.6,29.63,SE,137,4.0,0.0,68,0.00,,,0.00,WeatherTracker,2013-02-20 11:45:00,
2013-02-20 06:55:00,31.7,22.4,29.64,West,269,3.0,0.0,68,0.00,,,0.00,WeatherTracker,2013-02-20 11:55:00,
2013-02-20 07:05:00,31.6,21.9,29.64,NNW,337,10.0,0.0,67,0.00,,,0.00,WeatherTracker,2013-02-20 12:05:00,
2013-02-20 07:15:00,31.2,20.8,29.66,North,5,8.0,0.0,65,0.00,,,0.00,WeatherTracker,2013-02-20 12:15:00,
2013-02-20 07:20:00,31.2,20.8,29.66,ENE,72,5.0,0.0,65,0.00,,,0.00,WeatherTracker,2013-02-20 12:20:00,
2013-02-20 07:30:00,31.1,21.1,29.66,NW,315,4.0,0.0,66,0.00,,,0.00,WeatherTracker,2013-02-20 12:30:00,
2013-02-20 07:35:00,31.1,21.1,29.66,NW,313,1.0,0.0,66,0.00,,,0.00,WeatherTracker,2013-02-20 12:35:00,
2013-02-20 07:45:00,31.2,21.2,29.66,NNE,14,5.0,0.0,66,0.00,,,0.00,WeatherTracker,2013-02-20 12:45:00,
2013-02-20 07:50:00,31.3,21.3,29.66,North,5,2.0,0.0,66,0.00,,,0.00,WeatherTracker,2013-02-20 12:50:00,
2013-02-20 07:55:00,31.4,21.4,29.66,WNW,287,3.0,0.0,66,0.00,,,0.00,WeatherTracker,2013-02-20 12:55:00,
2013-02-20 08:00:00,31.5,21.1,29.66,West,262,8.0,0.0,65,0.00,,,0.00,WeatherTracker,2013-02-20 13:00:00,
2013-02-20 08:10:00,31.7,21.3,29.67,NW,311,9.0,0.0,65,0.00,,,0.00,WeatherTracker,2013-02-20 13:10:00,
2013-02-20 08:15:00,31.8,21.0,29.67,NNE,26,3.0,0.0,64,0.00,,,0.00,WeatherTracker,2013-02-20 13:15:00,
2013-02-20 08:25:00,32.1,21.7,29.67,NE,48,2.0,0.0,65,0.00,,,0.00,WeatherTracker,2013-02-20 13:25:00,
2013-02-20 08:35:00,32.4,21.2,29.67,WNW,290,8.0,0.0,63,0.00,,,0.00,WeatherTracker,2013-02-20 13:35:00,
2013-02-20 08:40:00,32.5,20.9,29.67,WNW,295,6.0,0.0,62,0.00,,,0.00,WeatherTracker,2013-02-20 13:40:00,
2013-02-20 08:45:00,32.6,20.7,29.67,NNW,344,9.0,0.0,61,0.00,,,0.00,WeatherTracker,2013-02-20 13:45:00,
2013-02-20 08:55:00,32.7,20.8,29.67,NNW,333,13.0,0.0,61,0.00,,,0.00,WeatherTracker,2013-02-20 13:55:00,
2013-02-20 09:00:00,32.8,20.9,29.67,NNE,26,5.0,0.0,61,0.00,,,0.00,WeatherTracker,2013-02-20 14:00:00,
2013-02-20 09:05:00,32.9,20.6,29.67,NW,318,7.0,0.0,60,0.00,,,0.00,WeatherTracker,2013-02-20 14:05:00,
2013-02-20 09:10:00,33.1,20.7,29.67,NNW,342,11.0,0.0,60,0.00,,,0.00,WeatherTracker,2013-02-20 14:10:00,
2013-02-20 09:20:00,32.8,20.1,29.67,North,350,9.0,0.0,59,0.00,,,0.00,WeatherTracker,2013-02-20 14:20:00,
2013-02-20 09:25:00,32.6,19.9,29.67,NNW,336,7.0,0.0,59,0.00,,,0.00,WeatherTracker,2013-02-20 14:25:00,
2013-02-20 09:30:00,32.6,19.9,29.67,NW,314,7.0,0.0,59,0.00,,,0.00,WeatherTracker,2013-02-20 14:30:00,
2013-02-20 09:40:00,33.1,20.4,29.67,North,355,13.0,0.0,59,0.00,,,0.00,WeatherTracker,2013-02-20 14:40:00,
2013-02-20 09:45:00,33.1,20.7,29.67,WNW,300,4.0,0.0,60,0.00,,,0.00,WeatherTracker,2013-02-20 14:45:00,
2013-02-20 09:50:00,33.2,20.8,29.67,North,360,2.0,0.0,60,0.00,,,0.00,WeatherTracker,2013-02-20 14:50:00,
2013-02-20 09:55:00,33.3,20.9,29.67,NNE,22,6.0,0.0,60,0.00,,,0.00,WeatherTracker,2013-02-20 14:55:00,
2013-02-20 10:05:00,33.6,20.8,29.67,North,350,3.0,0.0,59,0.00,,,0.00,WeatherTracker,2013-02-20 15:05:00,
2013-02-20 10:15:00,33.9,21.1,29.66,NNW,338,9.0,0.0,59,0.00,,,0.00,WeatherTracker,2013-02-20 15:15:00,
2013-02-20 10:20:00,33.6,20.4,29.67,North,11,6.0,0.0,58,0.00,,,0.00,WeatherTracker,2013-02-20 15:20:00,
2013-02-20 10:25:00,33.3,20.5,29.67,NW,315,5.0,0.0,59,0.00,,,0.00,WeatherTracker,2013-02-20 15:25:00,
2013-02-20 10:35:00,32.8,19.7,29.67,NW,313,11.0,0.0,58,0.00,,,0.00,WeatherTracker,2013-02-20 15:35:00,
2013-02-20 10:45:00,33.2,20.0,29.67,NNW,335,2.0,0.0,58,0.00,,,0.00,WeatherTracker,2013-02-20 15:45:00,
2013-02-20 10:50:00,33.4,20.2,29.67,NNW,346,4.0,0.0,58,0.00,,,0.00,WeatherTracker,2013-02-20 15:50:00,
2013-02-20 10:55:00,33.4,20.2,29.67,NW,316,3.0,0.0,58,0.00,,,0.00,WeatherTracker,2013-02-20 15:55:00,
2013-02-20 11:00:00,33.3,19.7,29.67,NE,51,2.0,0.0,57,0.00,,,0.00,WeatherTracker,2013-02-20 16:00:00,
2013-02-20 11:05:00,33.6,20.0,29.67,WNW,283,4.0,0.0,57,0.00,,,0.00,WeatherTracker,2013-02-20 16:05:00,
2013-02-20 11:15:00,33.3,19.7,29.68,North,355,1.0,0.0,57,0.00,,,0.00,WeatherTracker,2013-02-20 16:15:00,
2013-02-20 11:20:00,33.3,19.3,29.67,NNE,32,5.0,0.0,56,0.00,,,0.00,WeatherTracker,2013-02-20 16:20:00,
2013-02-20 11:30:00,33.5,17.8,29.67,South,179,4.0,0.0,52,0.00,,,0.00,WeatherTracker,2013-02-20 16:30:00,
2013-02-20 11:35:00,33.3,18.5,29.67,NNW,344,6.0,0.0,54,0.00,,,0.00,WeatherTracker,2013-02-20 16:35:00,
2013-02-20 11:40:00,33.0,18.6,29.67,ENE,74,10.0,0.0,55,0.00,,,0.00,WeatherTracker,2013-02-20 16:40:00,
2013-02-20 11:45:00,33.0,19.0,29.67,NW,317,4.0,0.0,56,0.00,,,0.00,WeatherTracker,2013-02-20 16:45:00,
2013-02-20 11:55:00,33.1,18.3,29.66,North,355,6.0,0.0,54,0.00,,,0.00,WeatherTracker,2013-02-20 16:55:00,
2013-02-20 12:00:00,33.5,17.8,29.67,NE,46,7.0,0.0,52,0.00,,,0.00,WeatherTracker,2013-02-20 17:00:00,
2013-02-20 12:10:00,33.8,17.2,29.67,NNW,343,12.0,0.0,50,0.00,,,0.00,WeatherTracker,2013-02-20 17:10:00,
2013-02-20 12:20:00,33.5,16.9,29.66,WNW,288,12.0,0.0,50,0.00,,,0.00,WeatherTracker,2013-02-20 17:20:00,
2013-02-20 12:25:00,33.5,17.3,29.66,WNW,294,6.0,0.0,51,0.00,,,0.00,WeatherTracker,2013-02-20 17:25:00,
2013-02-20 12:30:00,33.6,17.4,29.66,North,355,4.0,0.0,51,0.00,,,0.00,WeatherTracker,2013-02-20 17:30:00,
2013-02-20 12:35:00,33.8,16.7,29.65,NNW,331,8.0,0.0,49,0.00,,,0.00,WeatherTracker,2013-02-20 17:35:00,
2013-02-20 12:40:00,33.9,16.8,29.65,NNW,346,3.0,0.0,49,0.00,,,0.00,WeatherTracker,2013-02-20 17:40:00,
2013-02-20 12:45:00,33.7,17.1,29.66,NNE,13,3.0,0.0,50,0.00,,,0.00,WeatherTracker,2013-02-20 17:45:00,
2013-02-20 12:50:00,33.3,16.7,29.65,NNW,348,7.0,0.0,50,0.00,,,0.00,WeatherTracker,2013-02-20 17:50:00,
2013-02-20 12:55:00,33.1,15.6,29.65,NNE,31,9.0,0.0,48,0.00,,,0.00,WeatherTracker,2013-02-20 17:55:00,
2013-02-20 13:00:00,33.0,15.5,29.65,NNE,19,3.0,0.0,48,0.00,,,0.00,WeatherTracker,2013-02-20 18:00:00,
2013-02-20 13:10:00,33.7,15.6,29.65,North,351,8.0,0.0,47,0.00,,,0.00,WeatherTracker,2013-02-20 18:10:00,
2013-02-20 13:15:00,34.1,16.0,29.64,NNW,330,9.0,0.0,47,0.00,,,0.00,WeatherTracker,2013-02-20 18:15:00,
2013-02-20 13:20:00,34.6,16.5,29.64,North,355,4.0,0.0,47,0.00,,,0.00,WeatherTracker,2013-02-20 18:20:00,
2013-02-20 13:25:00,35.0,15.3,29.65,NNW,335,9.0,0.0,44,0.00,,,0.00,WeatherTracker,2013-02-20 18:25:00,
2013-02-20 13:35:00,34.5,14.9,29.65,North,360,8.0,0.0,44,0.00,,,0.00,WeatherTracker,2013-02-20 18:35:00,
2013-02-20 13:45:00,34.0,15.4,29.65,NNW,337,8.0,0.0,46,0.00,,,0.00,WeatherTracker,2013-02-20 18:45:00,
2013-02-20 13:55:00,33.8,14.7,29.65,WNW,287,7.0,0.0,45,0.00,,,0.00,WeatherTracker,2013-02-20 18:55:00,
2013-02-20 14:00:00,33.7,15.1,29.65,NW,313,5.0,0.0,46,0.00,,,0.00,WeatherTracker,2013-02-20 19:00:00,
2013-02-20 14:05:00,33.6,15.1,29.65,West,259,5.0,0.0,46,0.00,,,0.00,WeatherTracker,2013-02-20 19:05:00,
2013-02-20 14:15:00,33.5,14.5,29.65,North,350,12.0,0.0,45,0.00,,,0.00,WeatherTracker,2013-02-20 19:15:00,
2013-02-20 14:20:00,33.3,14.3,29.65,ENE,74,5.0,0.0,45,0.00,,,0.00,WeatherTracker,2013-02-20 19:20:00,
2013-02-20 14:30:00,33.0,14.0,29.65,NNW,327,2.0,0.0,45,0.00,,,0.00,WeatherTracker,2013-02-20 19:30:00,
2013-02-20 14:35:00,33.2,14.2,29.65,NNW,337,7.0,0.0,45,0.00,,,0.00,WeatherTracker,2013-02-20 19:35:00,
2013-02-20 14:55:00,33.0,13.5,29.66,NW,311,4.0,0.0,44,0.00,,,0.00,WeatherTracker,2013-02-20 19:55:00,
2013-02-20 15:00:00,33.0,13.5,29.66,NW,313,7.0,0.0,44,0.00,,,0.00,WeatherTracker,2013-02-20 20:00:00,
2013-02-20 15:10:00,32.8,12.8,29.66,NNW,336,16.0,0.0,43,0.00,,,0.00,WeatherTracker,2013-02-20 20:10:00,
2013-02-20 15:30:00,32.6,12.6,29.67,NE,38,6.0,0.0,43,0.00,,,0.00,WeatherTracker,2013-02-20 20:30:00,
2013-02-20 15:40:00,33.0,12.4,29.66,West,270,5.0,0.0,42,0.00,,,0.00,WeatherTracker,2013-02-20 20:40:00,
2013-02-20 15:50:00,32.8,12.8,29.67,NNW,327,4.0,0.0,43,0.00,,,0.00,WeatherTracker,2013-02-20 20:50:00,
2013-02-20 15:55:00,32.6,12.1,29.68,NNW,343,3.0,0.0,42,0.00,,,0.00,WeatherTracker,2013-02-20 20:55:00,
2013-02-20 16:00:00,32.8,12.8,29.68,NNW,344,10.0,0.0,43,0.00,,,0.00,WeatherTracker,2013-02-20 21:00:00,
2013-02-20 16:05:00,32.6,12.1,29.68,West,271,6.0,0.0,42,0.00,,,0.00,WeatherTracker,2013-02-20 21:05:00,
2013-02-20 16:15:00,32.1,12.2,29.68,North,5,9.0,0.0,43,0.00,,,0.00,WeatherTracker,2013-02-20 21:15:00,
2013-02-20 16:20:00,31.9,12.0,29.68,NNW,336,6.0,0.0,43,0.00,,,0.00,WeatherTracker,2013-02-20 21:20:00,
2013-02-20 16:25:00,32.0,12.1,29.68,North,355,5.0,0.0,43,0.00,,,0.00,WeatherTracker,2013-02-20 21:25:00,
2013-02-20 16:30:00,31.9,12.0,29.68,NE,36,10.0,0.0,43,0.00,,,0.00,WeatherTracker,2013-02-20 21:30:00,
2013-02-20 16:40:00,31.2,10.8,29.68,NNW,347,9.0,0.0,42,0.00,,,0.00,WeatherTracker,2013-02-20 21:40:00,
2013-02-20 16:45:00,31.1,11.2,29.68,North,355,6.0,0.0,43,0.00,,,0.00,WeatherTracker,2013-02-20 21:45:00,
2013-02-20 16:55:00,30.8,11.5,29.69,NW,323,5.0,0.0,44,0.00,,,0.00,WeatherTracker,2013-02-20 21:55:00,
2013-02-20 17:00:00,30.6,11.8,29.69,NW,323,2.0,0.0,45,0.00,,,0.00,WeatherTracker,2013-02-20 22:00:00,
2013-02-20 17:10:00,30.2,11.9,29.70,WNW,296,7.0,0.0,46,0.00,,,0.00,WeatherTracker,2013-02-20 22:10:00,
2013-02-20 17:15:00,30.1,12.3,29.70,WNW,301,4.0,0.0,47,0.00,,,0.00,WeatherTracker,2013-02-20 22:15:00,
2013-02-20 17:20:00,29.9,12.1,29.70,NE,44,5.0,0.0,47,0.00,,,0.00,WeatherTracker,2013-02-20 22:20:00,
2013-02-20 17:35:00,29.4,11.7,29.70,North,360,9.0,0.0,47,0.00,,,0.00,WeatherTracker,2013-02-20 22:35:00,
2013-02-20 17:40:00,29.3,12.1,29.71,WNW,298,3.0,0.0,48,0.00,,,0.00,WeatherTracker,2013-02-20 22:40:00,
2013-02-20 17:50:00,29.2,12.0,29.71,NNW,347,11.0,0.0,48,0.00,,,0.00,WeatherTracker,2013-02-20 22:50:00,
2013-02-20 18:00:00,29.0,12.3,29.71,NNW,341,3.0,0.0,49,0.00,,,0.00,WeatherTracker,2013-02-20 23:00:00,
2013-02-20 18:10:00,28.9,11.7,29.72,NNW,333,1.0,0.0,48,0.00,,,0.00,WeatherTracker,2013-02-20 23:10:00,
2013-02-20 18:15:00,28.8,11.6,29.72,NNW,347,15.0,0.0,48,0.00,,,0.00,WeatherTracker,2013-02-20 23:15:00,
2013-02-20 18:25:00,28.8,12.1,29.72,NNW,340,5.0,0.0,49,0.00,,,0.00,WeatherTracker,2013-02-20 23:25:00,
2013-02-20 18:30:00,28.7,11.5,29.73,NNW,342,8.0,0.0,48,0.00,,,0.00,WeatherTracker,2013-02-20 23:30:00,
2013-02-20 18:35:00,28.6,11.4,29.72,North,350,6.0,0.0,48,0.00,,,0.00,WeatherTracker,2013-02-20 23:35:00,
2013-02-20 18:40:00,28.6,11.9,29.73,North,349,5.0,0.0,49,0.00,,,0.00,WeatherTracker,2013-02-20 23:40:00,
2013-02-20 18:50:00,26.1,10.9,29.73,NNE,17,0.0,0.0,52,0.00,,,0.00,WeatherTracker,2013-02-20 23:50:00,
2013-02-20 18:55:00,26.0,10.8,29.73,West,263,1.0,0.0,52,0.00,,,0.00,WeatherTracker,2013-02-20 23:55:00,
2013-02-20 19:05:00,28.3,12.1,29.73,North,355,8.0,0.0,50,0.00,,,0.00,WeatherTracker,2013-02-21 00:05:00,
2013-02-20 19:15:00,28.2,12.4,29.73,NW,323,4.0,0.0,51,0.00,,,0.00,WeatherTracker,2013-02-21 00:15:00,
2013-02-20 19:20:00,28.1,11.9,29.73,NNW,329,5.0,0.0,50,0.00,,,0.00,WeatherTracker,2013-02-21 00:20:00,
2013-02-20 19:30:00,28.0,12.7,29.74,NNW,336,2.0,0.0,52,0.00,,,0.00,WeatherTracker,2013-02-21 00:30:00,
2013-02-20 19:35:00,28.0,12.7,29.74,NNW,327,7.0,0.0,52,0.00,,,0.00,WeatherTracker,2013-02-21 00:35:00,
2013-02-20 19:45:00,27.9,13.0,29.74,WNW,302,4.0,0.0,53,0.00,,,0.00,WeatherTracker,2013-02-21 00:45:00,
2013-02-20 20:00:00,27.9,13.0,29.74,NNW,338,5.0,0.0,53,0.00,,,0.00,WeatherTracker,2013-02-21 01:00:00,
2013-02-20 20:05:00,27.9,13.4,29.74,North,355,6.0,0.0,54,0.00,,,0.00,WeatherTracker,2013-02-21 01:05:00,
2013-02-20 20:15:00,27.9,13.9,29.74,NE,38,6.0,0.0,55,0.00,,,0.00,WeatherTracker,2013-02-21 01:15:00,
2013-02-20 20:20:00,27.9,13.9,29.74,NNE,22,8.0,0.0,55,0.00,,,0.00,WeatherTracker,2013-02-21 01:20:00,
2013-02-20 20:30:00,27.8,13.8,29.74,NW,325,6.0,0.0,55,0.00,,,0.00,WeatherTracker,2013-02-21 01:30:00,
2013-02-20 20:35:00,27.8,13.8,29.74,NNE,18,8.0,0.0,55,0.00,,,0.00,WeatherTracker,2013-02-21 01:35:00,
2013-02-20 20:40:00,27.7,14.1,29.75,WNW,297,2.0,0.0,56,0.00,,,0.00,WeatherTracker,2013-02-21 01:40:00,
2013-02-20 20:50:00,27.6,14.4,29.75,NW,325,3.0,0.0,57,0.00,,,0.00,WeatherTracker,2013-02-21 01:50:00,
2013-02-20 21:05:00,27.3,14.5,29.75,NNW,345,5.0,0.0,58,0.00,,,0.00,WeatherTracker,2013-02-21 02:05:00,
2013-02-20 21:10:00,27.2,14.4,29.76,NW,319,3.0,0.0,58,0.00,,,0.00,WeatherTracker,2013-02-21 02:10:00,
2013-02-20 21:15:00,27.1,14.3,29.75,NW,313,8.0,0.0,58,0.00,,,0.00,WeatherTracker,2013-02-21 02:15:00,
2013-02-20 21:20:00,27.1,14.3,29.75,NW,309,4.0,0.0,58,0.00,,,0.00,WeatherTracker,2013-02-21 02:20:00,
2013-02-20 21:25:00,27.0,14.6,29.75,NNE,14,4.0,0.0,59,0.00,,,0.00,WeatherTracker,2013-02-21 02:25:00,
2013-02-20 21:35:00,26.9,14.5,29.76,NW,318,1.0,0.0,59,0.00,,,0.00,WeatherTracker,2013-02-21 02:35:00,
2013-02-20 21:45:00,26.8,14.8,29.75,NNE,22,5.0,0.0,60,0.00,,,0.00,WeatherTracker,2013-02-21 02:45:00,
2013-02-20 21:50:00,26.8,14.8,29.76,WNW,292,6.0,0.0,60,0.00,,,0.00,WeatherTracker,2013-02-21 02:50:00,
2013-02-20 21:55:00,26.8,14.8,29.76,NNE,12,6.0,0.0,60,0.00,,,0.00,WeatherTracker,2013-02-21 02:55:00,
2013-02-20 22:00:00,26.8,14.8,29.76,NNE,19,6.0,0.0,60,0.00,,,0.00,WeatherTracker,2013-02-21 03:00:00,
2013-02-20 22:10:00,26.7,15.1,29.77,NW,313,12.0,0.0,61,0.00,,,0.00,WeatherTracker,2013-02-21 03:10:00,
2013-02-20 22:15:00,26.7,15.1,29.77,NNE,31,6.0,0.0,61,0.00,,,0.00,WeatherTracker,2013-02-21 03:15:00,
2013-02-20 22:20:00,26.7,15.5,29.77,WNW,299,2.0,0.0,62,0.00,,,0.00,WeatherTracker,2013-02-21 03:20:00,
2013-02-20 22:25:00,26.7,15.5,29.77,North,5,7.0,0.0,62,0.00,,,0.00,WeatherTracker,2013-02-21 03:25:00,
2013-02-20 22:35:00,26.7,15.5,29.78,North,5,7.0,0.0,62,0.00,,,0.00,WeatherTracker,2013-02-21 03:35:00,
2013-02-20 22:40:00,26.8,15.6,29.78,NW,326,7.0,0.0,62,0.00,,,0.00,WeatherTracker,2013-02-21 03:40:00,
2013-02-20 22:45:00,26.8,15.6,29.79,NNE,13,6.0,0.0,62,0.00,,,0.00,WeatherTracker,2013-02-21 03:45:00,
2013-02-20 22:50:00,26.9,15.6,29.79,North,350,6.0,0.0,62,0.00,,,0.00,WeatherTracker,2013-02-21 03:50:00,
2013-02-20 22:55:00,27.0,16.1,29.79,NNE,32,4.0,0.0,63,0.00,,,0.00,WeatherTracker,2013-02-21 03:55:00,
2013-02-20 23:00:00,27.0,16.1,29.79,WSW,258,2.0,0.0,63,0.00,,,0.00,WeatherTracker,2013-02-21 04:00:00,
2013-02-20 23:10:00,27.1,16.2,29.79,North,10,7.0,0.0,63,0.00,,,0.00,WeatherTracker,2013-02-21 04:10:00,
2013-02-20 23:20:00,27.1,16.2,29.79,NW,321,2.0,0.0,63,0.00,,,0.00,WeatherTracker,2013-02-21 04:20:00,
2013-02-20 23:25:00,27.1,16.2,29.79,North,5,6.0,0.0,63,0.00,,,0.00,WeatherTracker,2013-02-21 04:25:00,
2013-02-20 23:30:00,27.2,16.3,29.79,WNW,289,3.0,0.0,63,0.00,,,0.00,WeatherTracker,2013-02-21 04:30:00,
2013-02-20 23:35:00,27.2,16.3,29.79,NW,311,3.0,0.0,63,0.00,,,0.00,WeatherTracker,2013-02-21 04:35:00,
2013-02-20 23:40:00,27.2,16.3,29.79,NNE,21,4.0,0.0,63,0.00,,,0.00,WeatherTracker,2013-02-21 04:40:00,
2013-02-20 23:50:00,27.2,16.3,29.78,North,360,2.0,0.0,63,0.00,,,0.00,WeatherTracker,2013-02-21 04:50:00,